Date,TemperatureHighF,TemperatureAvgF,TemperatureLowF,DewpointHighF,DewpointAvgF,DewpointLowF,HumidityHigh,HumidityAvg,HumidityLow,PressureMaxIn,PressureMinIn,WindSpeedMaxMPH,WindSpeedAvgMPH,GustSpeedMaxMPH,PrecipitationSumIn
2013-1-1,25,24,24,20,20,19,86,82,78,30.22,30.19,4,3,0,0.00
2013-1-2,24,20,14,18,15,11,86,82,78,30.24,30.22,1,0,0,0.00
2013-1-3,40,34,24,27,24,22,92,69,53,30.39,30.34,4,2,0,0.00
2013-1-4,29,26,21,24,22,19,91,87,82,30.44,30.42,1,0,0,0.00
2013-1-5,39,38,36,29,27,26,67,66,64,30.29,30.27,4,2,0,0.00
2013-1-6,39,34,28,24,21,17,70,58,45,30.36,30.32,6,3,0,0.00
2013-1-7,50,42,20,25,24,17,87,50,36,30.33,30.13,9,3,0,0.00
2013-1-8,50,41,31,27,26,24,74,56,41,30.14,30.12,6,3,0,0.00
2013-1-9,57,48,40,44,38,33,98,70,46,30.42,30.35,2,1,0,0.00
2013-1-10,49,45,42,48,44,41,97,96,96,30.15,29.98,4,3,0,0.00
2013-1-11,64,58,47,48,46,44,91,65,53,29.84,29.73,11,8,0,0.00
2013-1-12,59,42,27,48,34,24,93,73,45,30.01,29.80,9,3,0,0.00
2013-1-13,27,19,12,25,15,9,91,84,78,30.35,29.96,0,0,0,0.00
2013-1-14,19,16,11,14,12,8,87,83,79,30.47,30.42,0,0,0,0.00
2013-1-18,40,38,35,28,28,26,69,65,63,30.42,30.40,5,4,0,0.00
2013-1-20,37,37,37,19,19,19,47,47,47,30.30,30.30,1,1,0,0.00
2013-1-21,28,26,20,12,11,9,66,53,47,30.40,30.35,8,5,0,0.00
2013-1-22,33,27,18,14,10,5,61,49,39,30.41,30.24,5,2,0,0.00
2013-1-23,53,42,16,35,30,13,87,62,49,30.25,30.15,5,2,0,0.00
2013-1-24,22,20,18,9,8,7,62,60,56,30.46,30.44,3,2,0,0.00
2013-1-25,35,33,30,23,23,23,76,68,60,30.21,30.16,4,3,0,0.00
2013-1-28,74,70,65,60,58,56,81,68,56,29.94,29.85,11,8,0,0.00
2013-1-29,68,58,51,60,55,50,98,90,74,29.71,29.48,15,5,0,0.00
2013-1-30,35,32,30,32,28,26,91,88,83,29.68,29.57,12,9,0,0.00
2013-2-3,43,42,41,23,22,22,48,45,44,30.07,30.03,2,1,0,0.00
2013-2-4,60,51,34,39,33,28,80,52,38,29.96,29.81,7,4,0,0.00
2013-2-6,45,45,45,33,33,33,62,62,62,30.16,30.16,7,7,0,0.00
2013-2-7,52,50,48,49,45,40,96,85,70,29.94,29.89,4,1,0,0.00
2013-2-8,37,34,33,30,29,28,84,80,76,30.34,30.28,3,2,0,0.00
2013-2-9,45,41,37,34,30,28,90,68,53,30.12,29.96,9,6,0,0.00
2013-2-10,60,55,46,37,30,26,53,38,28,29.84,29.59,8,6,0,0.00
2013-2-11,38,36,35,27,27,27,71,68,65,30.14,30.12,3,3,0,0.00
2013-2-12,30,29,25,27,26,23,91,90,89,30.14,30.10,0,0,0,0.00
2013-2-13,35,33,31,34,32,30,97,95,93,29.96,29.94,3,1,0,0.00
2013-2-14,54,47,34,34,31,28,77,55,38,30.01,29.97,7,4,0,0.00
2013-2-15,37,33,31,25,17,9,74,52,31,30.32,30.24,9,7,0,0.00
2013-2-16,36,32,28,23,19,17,72,59,48,30.31,30.13,4,2,0,0.00
2013-2-17,52,40,31,31,25,20,66,56,45,30.13,29.84,9,4,0,0.00
2013-2-18,53,42,35,50,36,26,89,80,70,29.99,29.54,13,8,0,0.00
2013-2-19,32,31,29,16,15,15,56,52,48,30.22,30.19,9,9,0,0.00
2013-2-20,31,26,22,11,9,7,53,48,41,30.35,30.23,2,1,0,0.00
2013-2-21,32,29,26,31,27,23,96,92,87,29.99,29.73,5,3,0,0.00
2013-2-24,52,47,40,33,32,30,66,55,49,30.04,29.91,7,3,0,0.00
2013-2-25,45,37,33,33,30,26,96,79,53,29.88,29.50,7,4,0,0.00
2013-2-26,33,32,32,31,31,29,95,92,90,29.75,29.42,8,5,0,0.00
2013-2-28,30,30,30,25,25,25,82,81,80,30.08,30.07,6,6,0,0.00
2013-3-1,30,29,28,24,23,21,82,77,73,30.18,30.15,6,4,0,0.00
2013-3-2,27,26,25,16,15,14,69,64,63,30.32,30.31,7,6,0,0.00
2013-3-4,60,51,39,43,39,30,84,63,49,29.82,29.65,8,3,0,0.00
2013-3-5,43,36,33,34,27,20,91,71,50,30.13,29.82,11,7,0,0.00
2013-3-6,37,32,27,24,20,18,68,62,57,30.40,30.37,6,4,0,0.00
2013-3-7,35,34,32,27,26,24,72,71,71,30.29,30.29,3,3,0,0.00
2013-3-8,55,49,40,35,34,31,72,56,46,30.30,30.23,9,7,0,0.00
2013-3-9,69,62,54,54,50,40,93,66,39,29.80,29.73,16,9,0,0.00
2013-3-10,57,49,35,55,47,33,97,91,69,29.83,29.63,10,4,0,0.00
2013-3-11,27,27,27,24,24,24,88,87,87,29.86,29.85,6,5,0,0.00
2013-3-13,28,26,23,19,19,18,81,74,69,30.40,30.38,5,2,0,0.00
2013-3-14,71,60,40,41,35,24,69,41,30,30.27,30.09,7,4,0,0.00
2013-3-15,71,62,50,48,46,43,76,58,44,29.99,29.93,4,2,0,0.00
2013-3-16,52,47,39,43,38,35,90,74,67,29.99,29.91,6,3,0,0.00
2013-3-17,39,36,35,37,35,34,96,95,90,30.00,29.74,3,2,0,0.00
2013-3-18,53,41,36,38,33,25,99,79,36,30.04,29.70,8,3,0,0.00
2013-3-19,40,32,24,25,22,16,90,70,38,30.22,30.17,3,1,0,0.00
2013-3-20,36,34,32,24,18,10,73,53,34,30.34,30.31,8,6,0,0.00
2013-3-27,45,41,34,29,27,25,80,59,46,30.35,30.33,4,2,0,0.00
2013-3-28,64,63,61,40,39,38,42,42,41,30.20,30.18,5,4,0,0.00
2013-3-29,49,48,48,49,48,47,99,98,98,30.19,30.18,0,0,0,0.00
2013-3-30,59,55,49,52,48,-100,96,85,77,30.03,29.88,9,2,0,0.00
2013-3-31,66,60,47,47,41,37,73,50,36,29.99,29.92,5,3,0,0.00
2013-4-1,49,45,40,38,34,31,75,67,49,30.22,29.96,6,4,0,0.00
2013-4-2,35,34,34,22,22,21,62,59,56,30.31,30.30,1,1,0,0.00
2013-4-3,44,39,33,24,23,21,62,52,44,30.34,30.33,3,2,0,0.00
2013-4-4,57,56,55,27,26,25,31,31,30,30.08,30.07,5,4,0,0.00
2013-4-5,69,63,48,39,37,34,61,38,29,30.19,30.00,7,2,0,0.00
2013-4-6,74,67,58,49,45,38,59,45,34,29.92,29.75,16,7,0,0.00
2013-4-7,74,67,56,55,52,49,92,62,43,29.83,29.73,16,3,0,0.00
2013-4-8,75,71,65,59,58,55,76,64,52,29.83,29.75,12,6,0,0.00
2013-4-10,58,49,41,56,48,40,97,96,92,29.86,29.69,5,3,0,0.00
2013-4-11,45,40,35,33,31,30,91,72,57,29.80,29.73,8,4,0,0.00
2013-4-12,52,47,40,34,32,27,79,56,48,29.99,29.91,8,5,0,0.00
2013-4-14,79,75,68,55,46,41,63,37,27,29.66,29.52,16,11,0,0.00
2013-4-15,73,59,51,63,53,45,94,81,70,29.88,29.74,9,4,0,0.00
2013-4-16,47,45,43,45,44,42,97,94,91,30.10,30.05,3,2,0,0.00
2013-4-17,83,77,57,67,64,57,100,66,54,29.95,29.65,15,10,0,0.00
2013-4-18,75,75,75,64,64,64,68,68,68,29.68,29.68,11,11,0,0.00
2013-4-19,52,46,35,30,26,22,71,47,32,30.08,29.98,9,6,0,0.00
2013-4-20,62,57,43,36,33,29,62,41,32,30.26,30.16,4,2,0,0.00
2013-4-21,67,64,58,39,36,32,48,36,28,30.29,30.17,11,7,0,0.00
2013-4-24,53,45,36,33,31,27,89,59,38,30.25,30.22,6,5,0,0.00
2013-4-25,58,52,40,36,33,31,69,50,41,30.37,30.33,5,4,0,0.00
2013-4-26,49,47,47,47,46,45,96,94,88,30.35,30.19,6,3,0,0.00
2013-4-29,85,79,72,62,58,52,65,49,35,29.90,29.77,7,3,0,0.00
2013-4-30,82,78,69,56,49,46,56,37,29,29.90,29.84,13,7,0,0.00
2013-5-1,81,77,66,62,60,56,71,56,45,30.09,30.01,7,4,0,0.00
2013-5-2,48,43,37,45,41,35,94,91,87,30.28,30.22,6,5,0,0.00
2013-5-3,36,34,33,34,33,32,95,94,91,30.07,29.97,9,5,0,0.00
2013-5-4,38,38,37,35,34,34,92,88,85,29.88,29.88,2,1,0,0.00
2013-5-6,68,62,52,54,53,51,98,74,58,30.09,30.00,6,4,0,0.00
2013-5-7,78,70,52,56,51,48,98,54,37,30.08,29.99,4,2,0,0.00
2013-5-8,72,68,59,59,57,54,89,70,54,30.09,29.95,5,1,0,0.00
2013-5-9,75,70,60,62,60,57,94,71,57,29.96,29.91,5,2,0,0.00
2013-5-10,63,58,52,58,51,-100,93,82,71,30.05,29.94,6,4,0,0.00
2013-5-11,70,62,46,53,38,-100,87,46,27,30.21,30.09,10,5,0,0.00
2013-5-13,78,70,51,54,47,40,76,47,35,30.22,30.04,7,3,0,0.00
2013-5-14,90,82,68,53,51,49,56,35,27,30.02,29.93,5,3,0,0.00
2013-5-15,84,75,64,68,63,55,87,66,52,29.99,29.90,6,2,0,0.00
2013-5-16,70,57,63,63,23,-100,98,82,74,29.96,29.88,8,4,0,0.00
2013-5-17,78,72,66,64,54,-100,87,68,57,29.98,29.91,3,1,0,0.00
2013-5-19,79,79,79,67,66,65,66,65,63,29.77,29.69,10,8,0,0.00
2013-5-20,76,70,62,70,67,62,99,88,76,29.88,29.75,9,4,0,0.00
2013-5-21,73,67,59,64,61,58,96,81,65,29.87,29.68,6,2,0,0.00
2013-5-22,61,58,56,59,57,55,97,95,89,29.82,29.76,2,0,0,0.00
2013-5-23,70,65,56,56,54,50,87,68,60,30.19,30.06,6,3,0,0.00
2013-5-24,66,62,57,52,47,45,84,60,47,30.37,30.36,6,4,0,0.00
2013-5-25,81,73,59,65,60,49,85,65,55,30.25,30.10,6,4,0,0.00
2013-5-26,84,73,62,68,63,59,91,72,50,30.16,29.99,10,4,0,0.00
2013-5-27,80,77,75,70,66,63,74,68,66,29.87,29.77,14,10,0,0.00
2013-5-28,81,76,70,69,66,63,83,71,62,29.88,29.81,11,7,0,0.00
2013-5-29,80,76,71,67,66,62,82,70,61,29.93,29.83,11,8,0,0.00
2013-5-30,83,76,65,67,64,61,90,68,58,29.86,29.75,16,11,0,0.00
2013-5-31,82,78,70,72,70,66,88,77,67,29.84,29.70,10,6,0,0.00
2013-6-1,75,69,61,67,61,58,99,79,59,30.00,29.76,5,2,0,0.00
2013-6-2,62,60,56,58,55,53,97,86,75,30.09,30.00,4,1,0,0.00
2013-6-3,74,67,53,60,56,53,99,69,52,30.10,29.95,5,2,0,0.00
2013-6-4,74,69,61,63,61,56,84,75,66,30.05,29.95,6,3,0,0.00
2013-6-5,69,65,58,66,62,57,96,91,84,30.02,29.88,4,1,0,0.00
2013-6-6,72,67,61,63,61,58,100,81,63,29.95,29.91,4,1,0,0.00
2013-6-7,73,67,53,58,54,49,99,66,43,29.99,29.92,5,2,0,0.00
2013-6-8,53,51,50,52,50,49,97,96,95,29.98,29.96,0,0,0,0.00
2013-6-9,79,69,60,67,62,59,97,80,56,29.93,29.83,4,1,0,0.00
2013-6-10,86,79,65,70,62,59,92,57,46,29.93,29.90,4,2,0,0.00
2013-6-11,93,85,74,73,69,66,83,60,44,30.00,29.93,6,2,0,0.00
2013-6-12,90,86,80,73,70,68,71,60,49,29.98,29.87,11,5,0,0.00
2013-6-13,84,77,67,68,64,58,87,66,52,30.08,30.00,4,2,0,0.00
2013-6-14,78,75,69,66,66,65,89,73,65,30.09,30.07,6,4,0,0.00
2013-6-15,71,69,68,68,67,66,96,92,86,30.10,30.05,5,3,0,0.00
2013-6-17,74,72,67,71,69,64,98,91,86,30.01,29.94,5,1,0,0.00
2013-6-18,85,74,62,71,67,62,100,80,57,30.06,30.01,3,1,0,0.00
2013-6-19,85,80,68,70,67,65,99,65,53,30.09,30.01,3,1,0,0.00
2013-6-20,77,74,70,69,68,68,92,82,75,30.11,30.10,5,2,0,0.00
2013-6-22,88,86,81,76,73,72,73,66,59,30.10,29.98,7,4,0,0.00
2013-6-23,88,85,77,75,73,70,80,68,60,30.05,29.95,6,3,0,0.00
2013-6-24,89,83,75,74,71,69,84,69,54,30.09,29.96,7,4,0,0.00
2013-6-25,87,85,78,74,72,70,77,65,59,29.99,29.88,8,5,0,0.00
2013-6-26,93,88,78,77,74,71,80,64,53,29.89,29.85,4,2,0,0.00
2013-6-27,93,85,75,81,76,72,97,76,65,29.99,29.87,3,1,0,0.00
2013-6-28,86,81,71,74,69,64,98,68,52,29.96,29.85,6,3,0,0.00
2013-7-1,79,73,64,60,56,53,83,57,46,30.06,30.03,5,3,0,0.00
2013-7-2,79,72,59,63,56,52,92,60,41,30.12,30.07,4,2,0,0.00
2013-7-3,82,74,56,63,58,54,97,58,39,30.15,30.04,4,1,0,0.00
2013-7-4,84,83,82,61,58,56,50,43,38,30.08,30.04,4,2,0,0.00
2013-7-5,85,80,71,65,63,58,77,57,40,30.08,29.98,4,2,0,0.00
2013-7-6,88,86,79,70,63,59,69,48,38,30.06,29.96,5,3,0,0.00
2013-7-8,90,83,73,73,69,-100,88,66,52,30.14,30.06,6,2,0,0.00
2013-7-9,94,82,69,73,71,67,93,71,48,30.11,29.96,5,1,0,0.00
2013-7-10,92,85,76,77,74,70,92,71,50,30.03,29.96,3,1,0,0.00
2013-7-11,87,82,73,67,63,59,77,55,39,30.10,30.00,3,1,0,0.00
2013-7-12,75,72,67,61,60,60,80,67,60,30.12,30.12,6,4,0,0.00
2013-7-13,83,78,70,65,63,60,81,60,47,30.11,30.01,3,1,0,0.00
2013-7-14,88,84,78,66,61,58,66,48,38,30.12,30.05,5,2,0,0.00
2013-7-15,89,81,68,70,68,65,93,65,46,30.23,30.13,5,2,0,0.00
2013-7-16,91,81,73,75,71,67,97,76,45,30.32,30.25,4,1,0,0.00
2013-7-17,92,86,74,75,71,66,98,64,44,30.39,30.23,3,1,0,0.00
2013-7-18,95,82,68,75,69,64,97,71,38,30.27,30.06,3,1,0,0.00
2013-7-19,96,87,73,73,69,64,85,57,36,30.08,29.93,5,2,0,0.00
2013-7-20,92,78,70,72,68,-100,92,75,48,29.98,29.88,4,1,0,0.00
2013-7-21,84,77,71,70,69,69,92,79,60,29.91,29.86,5,2,0,0.00
2013-7-22,69,69,69,69,69,69,99,99,99,29.88,29.88,0,0,0,0.00
2013-7-29,79,73,64,71,68,63,96,84,71,30.15,30.05,7,2,0,0.00
2013-7-30,83,77,70,75,73,69,98,88,71,30.06,30.00,3,1,0,0.00
2013-7-31,84,76,70,73,70,67,99,85,59,30.11,30.03,5,1,0,0.00
2013-8-1,87,80,65,71,66,63,99,66,47,30.14,30.02,2,1,0,0.00
2013-8-2,79,74,70,76,71,65,97,89,74,30.02,29.91,5,1,0,0.00
2013-8-3,85,78,69,74,72,69,99,82,65,30.12,30.06,4,2,0,0.00
2013-8-4,73,71,69,72,70,68,98,97,90,30.20,30.07,3,1,0,0.00
2013-8-5,85,77,69,77,74,69,100,90,75,30.03,29.87,6,2,0,0.00
2013-8-6,82,77,70,75,72,69,98,87,77,29.96,29.84,7,2,0,0.00
2013-8-7,86,78,70,75,72,68,98,83,66,29.99,29.92,6,2,0,0.00
2013-8-8,83,75,70,74,72,70,99,89,69,30.02,29.92,3,1,0,0.00
2013-8-9,74,72,68,73,69,66,99,90,80,30.09,30.00,4,1,0,0.00
2013-8-10,82,74,67,71,68,66,99,82,60,30.19,30.09,4,1,0,0.00
2013-8-11,77,75,73,67,66,65,75,74,72,30.15,30.15,3,3,0,0.00
2013-8-12,76,75,73,75,73,71,99,93,87,30.06,30.01,4,1,0,0.00
2013-8-13,79,73,63,67,61,-100,94,70,53,30.12,30.06,3,1,0,0.00
2013-8-14,76,69,59,59,54,-100,96,67,48,30.23,30.11,3,1,0,0.00
2013-8-15,74,62,60,59,38,-100,91,60,50,30.17,30.07,3,1,0,0.00
2013-8-16,72,66,62,59,51,-100,84,69,57,30.15,30.14,2,1,0,0.00
2013-8-17,79,72,62,63,58,-100,91,66,54,30.20,30.11,3,1,0,0.00
2013-8-18,80,76,66,66,64,63,92,70,57,30.16,30.11,4,1,0,0.00
2013-8-19,81,69,61,68,46,-100,99,70,57,30.16,30.06,3,1,0,0.00
2013-8-20,80,70,62,68,58,-100,99,79,65,30.14,30.13,3,1,0,0.00
2013-8-21,88,81,64,73,69,64,99,68,52,30.15,30.06,4,1,0,0.00
2013-8-22,89,82,66,74,70,65,98,68,48,30.16,30.05,3,0,0,0.00
2013-8-23,89,82,67,74,70,66,98,69,52,30.15,30.05,3,1,0,0.00
2013-8-24,82,80,79,70,70,70,74,71,67,30.16,30.14,0,0,0,0.00
2013-8-25,86,86,85,72,71,70,66,62,59,30.27,30.25,3,2,0,0.00
2013-9-1,87,87,87,72,71,71,62,60,59,29.86,29.85,3,3,0,0.00
2013-9-2,84,77,67,65,62,59,86,62,43,30.06,29.97,4,-29,0,0.00
2013-9-3,86,78,57,63,59,54,98,55,36,30.13,30.03,3,1,0,0.00
2013-9-4,87,78,64,66,60,55,89,57,36,30.20,30.12,2,1,0,0.00
2013-9-5,76,68,55,64,61,54,97,81,66,30.24,30.18,0,0,0,0.00
2013-9-6,87,80,66,66,62,56,85,57,36,30.19,30.06,5,2,0,0.00
2013-9-7,93,88,76,72,66,61,78,51,35,30.08,29.96,4,2,0,0.00
2013-9-12,78,75,69,69,69,68,96,80,74,30.12,30.11,1,1,0,0.00
2013-9-13,58,58,58,50,50,50,74,74,74,30.15,30.15,0,0,0,0.00
2013-9-14,73,67,55,53,50,50,82,58,44,30.15,30.12,4,3,0,0.00
2013-9-16,68,67,66,67,66,64,96,95,94,30.24,30.20,1,0,0,0.00
2013-9-24,73,66,64,61,61,61,89,83,65,29.85,29.85,2,0,0,0.00
2013-9-25,77,68,53,65,61,52,99,80,63,29.92,29.85,3,1,0,0.00
2013-9-26,82,75,61,64,63,61,99,67,52,30.00,29.96,6,3,0,0.00
2013-9-27,83,79,66,67,64,61,92,62,47,30.07,29.96,8,6,0,0.00
2013-9-28,72,65,61,69,59,-100,97,90,77,30.07,29.97,8,2,0,0.00
2013-9-29,72,64,53,56,54,52,96,73,50,30.11,29.99,3,1,0,0.00
2013-9-30,77,69,57,65,62,57,100,80,60,29.97,29.88,7,2,0,0.00
2013-10-1,66,65,64,64,64,63,95,94,93,30.02,30.01,0,0,0,0.00
2013-10-2,79,75,65,72,69,65,99,83,73,30.07,29.96,4,1,0,0.00
2013-10-3,82,77,67,70,68,65,94,76,64,29.96,29.86,8,5,0,0.00
2013-10-4,84,78,69,69,68,67,92,74,60,29.95,29.88,8,6,0,0.00
2013-10-5,63,54,50,63,53,48,99,96,92,30.00,29.96,4,2,0,0.00
2013-10-6,56,55,54,43,42,41,65,62,61,29.95,29.93,5,3,0,0.00
2013-10-7,70,59,42,49,47,41,99,66,42,30.17,30.10,3,1,0,0.00
2013-10-8,72,61,40,54,50,39,99,70,47,30.20,30.09,8,3,0,0.00
2013-10-9,74,63,40,55,50,39,97,66,39,30.17,30.06,5,1,0,0.00
2013-10-10,76,66,46,58,54,45,99,68,48,30.14,29.98,5,2,0,0.00
2013-10-11,78,72,60,64,62,58,92,71,59,29.98,29.88,11,7,0,0.00
2013-10-12,59,58,58,58,58,57,97,97,97,30.05,30.03,1,0,0,0.00
2013-10-13,70,61,43,49,45,42,97,60,38,30.40,30.29,3,1,0,0.00
2013-10-14,66,60,51,60,53,44,93,76,61,30.24,30.03,4,2,0,0.00
2013-10-15,62,57,49,61,54,47,98,91,79,30.07,29.90,3,1,0,0.00
2013-10-16,57,50,41,46,43,40,98,75,60,30.12,30.01,4,2,0,0.00
2013-10-17,61,51,43,48,44,42,98,79,54,30.04,29.95,3,1,0,0.00
2013-10-18,55,47,37,43,41,36,99,81,59,30.11,30.02,3,2,0,0.00
2013-10-19,40,38,36,39,37,35,96,96,96,30.07,30.07,1,0,0,0.00
2013-10-22,62,60,60,42,42,42,52,50,47,29.93,29.91,6,5,0,0.00
2013-10-23,51,46,34,39,35,31,96,68,53,30.19,30.04,3,1,0,0.00
2013-10-24,51,42,33,36,29,24,84,61,36,30.42,30.27,6,2,0,0.00
2013-10-25,56,44,23,28,26,21,95,54,29,30.49,30.23,6,2,0,0.00
2013-10-26,64,59,50,48,46,42,73,63,53,30.15,30.07,4,2,0,0.00
2013-10-27,64,55,32,35,32,29,96,47,28,30.12,30.03,3,1,0,0.00
2013-10-28,70,55,40,56,44,-100,100,78,40,30.20,30.12,6,2,0,0.00
2013-10-29,64,59,56,63,59,55,99,98,95,30.17,30.01,4,3,0,0.00
2013-10-31,63,57,48,62,56,47,97,96,91,29.70,29.47,6,3,0,0.00
2013-11-1,61,52,42,43,42,41,98,72,47,29.91,29.77,5,1,0,0.00
2013-11-2,54,48,40,40,38,36,88,70,52,30.20,30.13,5,2,0,0.00
2013-11-3,53,46,28,42,37,27,98,73,58,30.25,30.05,10,5,0,0.00
2013-11-4,61,55,48,48,46,42,79,70,60,30.15,30.06,10,6,0,0.00
2013-11-5,59,57,53,57,56,52,98,94,90,30.19,29.98,9,6,0,0.00
2013-11-6,42,41,40,41,38,36,97,88,78,30.27,30.08,6,4,0,0.00
2013-11-7,58,48,33,40,35,32,98,64,38,30.42,30.31,6,2,0,0.00
2013-11-8,61,54,35,37,36,34,97,53,39,30.31,30.06,12,6,0,0.00
2013-11-11,62,53,38,50,45,36,93,75,64,30.43,30.16,8,2,0,0.00
2013-11-12,26,25,24,17,17,15,75,72,63,30.75,30.70,3,2,0,0.00
2013-11-13,48,39,21,21,16,13,83,42,24,30.64,30.31,9,3,0,0.00
2013-11-14,55,47,34,23,20,17,53,34,22,30.23,30.03,7,3,0,0.00
2013-11-15,57,52,45,44,40,34,70,65,60,30.04,29.87,7,5,0,0.00
2013-11-16,67,64,61,57,56,55,82,76,69,29.79,29.58,12,9,0,0.00
2013-11-17,64,57,51,25,21,18,32,25,19,30.00,29.79,6,4,0,0.00
2013-11-18,58,48,33,38,30,23,92,53,28,30.29,30.23,7,2,0,0.00
2013-11-19,59,52,36,34,26,20,89,39,27,30.29,30.11,8,5,0,0.00
2013-11-20,54,47,38,35,31,28,85,56,36,30.07,29.93,8,6,0,0.00
2013-11-21,52,50,47,51,48,44,98,94,79,30.22,30.04,7,2,0,0.00
2013-11-22,31,30,30,29,28,27,96,92,89,30.53,30.47,6,4,0,0.00
2013-11-25,35,33,30,27,24,14,82,69,50,30.27,30.16,5,1,0,0.00
2013-11-26,41,33,25,28,22,13,88,63,56,30.29,30.13,9,6,0,0.00
2013-11-27,33,26,17,13,11,9,70,54,38,30.42,30.27,6,2,0,0.00
2013-11-30,61,56,49,42,41,40,71,58,48,30.13,30.09,4,1,0,0.00
2013-12-1,35,35,34,34,34,33,98,98,97,30.12,30.11,0,0,0,0.00
2013-12-2,46,46,44,46,46,44,100,100,100,29.81,29.79,4,2,0,0.00
2013-12-3,60,53,41,52,48,41,99,85,66,29.67,29.58,8,4,0,0.00
2013-12-4,61,56,48,51,49,47,98,81,62,29.60,29.55,7,4,0,0.00
2013-12-5,24,23,21,15,13,11,73,66,59,30.25,30.15,6,4,0,0.00
2013-12-6,18,17,12,13,8,2,84,70,59,30.55,30.32,7,4,0,0.00
2013-12-7,4,4,4,-1,-1,-1,80,80,80,30.61,30.61,0,0,0,0.00
2013-12-8,26,26,26,24,24,22,93,91,86,30.07,30.01,2,1,0,0.00
2013-12-9,23,21,19,16,14,11,89,74,63,30.35,30.23,5,2,0,0.00
2013-12-10,30,25,12,14,12,7,79,56,49,30.35,30.24,4,2,0,0.00
2013-12-11,34,26,14,21,13,5,90,58,38,30.60,30.42,7,3,0,0.00
2013-12-12,41,33,13,21,18,7,75,53,40,30.54,30.32,4,2,0,0.00
2013-12-13,35,34,34,33,32,30,94,90,84,30.09,29.89,7,4,0,0.00
2013-12-14,32,31,31,31,30,30,96,96,96,30.00,29.98,4,4,0,0.00
2013-12-15,40,38,35,32,31,29,77,75,74,30.15,30.09,3,2,0,0.00
2013-12-16,58,48,37,37,34,30,78,61,43,30.14,30.01,4,1,0,0.00
2013-12-17,50,39,26,32,27,21,96,64,43,30.31,30.20,6,2,0,0.00
2013-12-18,58,50,26,36,32,21,82,51,39,30.31,29.91,11,6,0,0.00
2013-12-19,57,55,51,49,47,41,76,74,68,29.88,29.72,11,8,0,0.00
2013-12-20,61,41,31,56,38,29,96,90,82,29.90,29.73,8,3,0,0.00
2013-12-21,32,32,31,31,31,30,97,96,95,29.76,29.51,0,0,0,0.00
2013-12-22,27,27,27,25,25,25,92,92,91,30.04,30.03,0,0,0,0.00
2013-12-23,19,17,13,15,13,10,87,84,80,30.57,30.47,0,0,0,0.00
2013-12-24,32,22,8,24,16,4,86,77,70,30.56,30.27,0,0,0,0.00
2013-12-25,34,34,33,32,32,31,91,91,90,30.29,30.27,3,2,0,0.00
2013-12-26,40,34,30,35,30,25,96,85,76,30.36,30.32,1,0,0,0.00
2013-12-27,54,48,39,34,33,30,74,55,46,30.39,30.29,2,1,0,0.00
2013-12-28,45,42,38,33,31,29,70,66,63,30.19,30.19,1,1,0,0.00
2013-12-30,31,24,7,15,8,3,83,51,35,30.30,30.19,4,1,0,0.00
2013-12-31,54,46,21,28,24,17,83,44,32,30.36,30.16,7,4,0,0.00
2014-1-2,18,13,8,8,5,3,81,70,53,30.41,30.31,5,3,0,0.00